createdAt,value
2022-08-25T00:02:04.784Z,101946.63
2022-08-25T00:04:33.774Z,101944.56
2022-08-25T00:07:04.030Z,101940.00
2022-08-25T00:09:32.474Z,101941.03
2022-08-25T00:11:59.710Z,101931.88
2022-08-25T00:14:35.139Z,101941.66
2022-08-25T00:17:01.859Z,101934.78
2022-08-25T00:19:33.785Z,101931.22
2022-08-25T00:22:01.424Z,101938.97
2022-08-25T00:24:28.722Z,101936.91
2022-08-25T00:26:57.603Z,101930.84
2022-08-25T00:29:26.544Z,101942.31
2022-08-25T00:31:53.936Z,101934.38
2022-08-25T00:34:24.503Z,101938.97
2022-08-25T00:36:51.810Z,101934.56
2022-08-25T00:39:21.111Z,101937.28
2022-08-25T00:41:50.563Z,101932.06
2022-08-25T00:44:18.442Z,101936.44
2022-08-25T00:46:51.262Z,101929.56
2022-08-25T00:49:24.856Z,101932.25
2022-08-25T00:52:02.633Z,101923.31
2022-08-25T00:54:35.700Z,101925.16
2022-08-25T00:57:04.913Z,101920.78
2022-08-25T00:59:31.754Z,101923.88
2022-08-25T01:01:59.532Z,101918.28
2022-08-25T01:04:26.788Z,101923.47
2022-08-25T01:06:55.651Z,101918.88
2022-08-25T01:09:22.977Z,101923.06
2022-08-25T01:11:49.592Z,101921.59
2022-08-25T01:14:20.171Z,101915.34
2022-08-25T01:16:47.184Z,101914.22
2022-08-25T01:19:17.936Z,101906.47
2022-08-25T01:21:48.749Z,101906.91
2022-08-25T01:24:28.551Z,101913.72
2022-08-25T01:26:55.110Z,101906.56
2022-08-25T01:29:21.693Z,101911.75
2022-08-25T01:32:10.897Z,101902.94
2022-08-25T01:34:40.982Z,101899.97
2022-08-25T01:37:09.689Z,101901.59
2022-08-25T01:39:41.741Z,101904.69
2022-08-25T01:42:11.431Z,101909.44
2022-08-25T01:44:41.720Z,101904.63
2022-08-25T01:47:08.804Z,101903.78
2022-08-25T01:49:36.040Z,101900.25
2022-08-25T01:52:15.047Z,101904.81
2022-08-25T01:54:41.628Z,101904.63
2022-08-25T01:57:09.071Z,101902.75
2022-08-25T01:59:35.658Z,101901.44
2022-08-25T02:02:02.544Z,101897.06
2022-08-25T02:04:32.647Z,101891.88
2022-08-25T02:07:05.411Z,101894.75
2022-08-25T02:09:32.600Z,101898.66
2022-08-25T02:11:59.608Z,101886.38
2022-08-25T02:14:26.251Z,101890.94
2022-08-25T02:16:54.871Z,101890.47
2022-08-25T02:19:24.314Z,101892.75
2022-08-25T02:21:50.888Z,101894.16
2022-08-25T02:24:17.899Z,101887.06
2022-08-25T02:26:44.754Z,101888.28
2022-08-25T02:29:12.161Z,101887.81
2022-08-25T02:31:39.753Z,101895.31
2022-08-25T02:34:06.896Z,101883.59
2022-08-25T02:36:33.564Z,101895.78
2022-08-25T02:39:00.609Z,101893.50
2022-08-25T02:41:31.043Z,101894.88
2022-08-25T02:43:58.620Z,101884.47
2022-08-25T02:46:25.272Z,101889.38
2022-08-25T02:48:52.934Z,101873.97
2022-08-25T02:51:22.007Z,101878.72
2022-08-25T02:53:48.868Z,101870.28
2022-08-25T02:56:18.224Z,101873.00
2022-08-25T02:58:45.941Z,101873.59
2022-08-25T03:01:14.068Z,101871.72
2022-08-25T03:03:43.511Z,101868.19
2022-08-25T03:06:15.662Z,101854.59
2022-08-25T03:08:43.412Z,101861.19
2022-08-25T03:11:10.342Z,101870.97
2022-08-25T03:13:37.613Z,101862.63
2022-08-25T03:16:06.023Z,101860.75
2022-08-25T03:18:39.113Z,101863.81
2022-08-25T03:21:05.687Z,101859.25
2022-08-25T03:23:32.484Z,101861.31
2022-08-25T03:26:17.829Z,101854.59
2022-08-25T03:28:44.452Z,101851.47
2022-08-25T03:31:11.193Z,101857.03
2022-08-25T03:33:38.425Z,101849.97
2022-08-25T03:36:06.019Z,101847.47
2022-08-25T03:38:32.600Z,101846.34
2022-08-25T03:40:59.155Z,101843.63
2022-08-25T03:43:25.649Z,101836.56
2022-08-25T03:45:52.211Z,101830.53
2022-08-25T03:48:19.848Z,101831.16
2022-08-25T03:50:50.605Z,101833.69
2022-08-25T03:53:19.376Z,101827.00
2022-08-25T03:55:45.975Z,101833.25
2022-08-25T03:58:12.673Z,101818.06
2022-08-25T04:00:39.264Z,101827.00
2022-08-25T04:03:06.068Z,101819.75
2022-08-25T04:05:33.102Z,101824.94
2022-08-25T04:08:01.893Z,101819.75
2022-08-25T04:10:29.090Z,101828.84
2022-08-25T04:12:56.126Z,101810.53
2022-08-25T04:15:30.126Z,101812.38
2022-08-25T04:17:58.854Z,101817.78
2022-08-25T04:20:25.623Z,101815.25
2022-08-25T04:22:52.141Z,101807.47
2022-08-25T04:25:18.646Z,101806.44
2022-08-25T04:27:45.143Z,101809.31
2022-08-25T04:30:12.349Z,101802.59
2022-08-25T04:32:39.005Z,101798.41
2022-08-25T04:35:05.998Z,101788.56
2022-08-25T04:37:33.380Z,101796.72
2022-08-25T04:40:00.366Z,101794.03
2022-08-25T04:42:27.305Z,101790.50
2022-08-25T04:44:54.635Z,101789.47
2022-08-25T04:47:22.225Z,101784.72
2022-08-25T04:49:48.831Z,101788.44
2022-08-25T04:52:15.406Z,101804.09
2022-08-25T04:54:42.873Z,101793.50
2022-08-25T04:57:09.930Z,101804.09
2022-08-25T04:59:36.623Z,101796.84
2022-08-25T05:02:05.156Z,101795.50
2022-08-25T05:04:33.642Z,101796.19
2022-08-25T05:07:00.647Z,101793.22
2022-08-25T05:09:27.619Z,101792.91
2022-08-25T05:11:55.326Z,101797.13
2022-08-25T05:14:25.706Z,101792.75
2022-08-25T05:16:54.802Z,101801.94
2022-08-25T05:19:23.888Z,101803.41
2022-08-25T05:21:50.502Z,101805.13
2022-08-25T05:24:17.268Z,101802.44
2022-08-25T05:26:43.804Z,101806.81
2022-08-25T05:29:11.029Z,101809.84
2022-08-25T05:31:42.379Z,101805.47
2022-08-25T05:34:12.082Z,101810.03
2022-08-25T05:36:43.153Z,101805.22
2022-08-25T05:39:10.785Z,101800.00
2022-08-25T05:41:37.875Z,101808.56
2022-08-25T05:44:04.925Z,101810.03
2022-08-25T05:46:31.956Z,101814.22
2022-08-25T05:48:59.100Z,101819.28
2022-08-25T05:51:26.282Z,101824.97
2022-08-25T05:53:52.927Z,101828.50
2022-08-25T05:56:20.006Z,101834.53
2022-08-25T05:58:47.227Z,101826.59
2022-08-25T06:01:46.692Z,101828.28
2022-08-25T06:04:15.354Z,101827.66
2022-08-25T06:06:42.001Z,101833.91
2022-08-25T06:09:09.654Z,101828.50
2022-08-25T06:11:37.968Z,101821.44
2022-08-25T06:14:04.807Z,101819.94
2022-08-25T06:16:31.671Z,101816.41
2022-08-25T06:18:58.289Z,101817.06
2022-08-25T06:21:25.285Z,101824.13
2022-08-25T06:23:52.808Z,101813.03
2022-08-25T06:26:21.108Z,101824.31
2022-08-25T06:28:51.079Z,101830.06
2022-08-25T06:31:19.209Z,101821.66
2022-08-25T06:33:46.335Z,101827.88
2022-08-25T06:36:12.928Z,101827.22
2022-08-25T06:38:39.571Z,101822.88
2022-08-25T06:41:07.978Z,101819.78
2022-08-25T06:43:35.051Z,101830.97
2022-08-25T06:46:09.576Z,101827.22
2022-08-25T06:48:36.156Z,101829.94
2022-08-25T06:51:09.272Z,101826.22
2022-08-25T06:53:40.836Z,101827.03
2022-08-25T06:56:07.601Z,101823.84
2022-08-25T06:58:34.261Z,101822.44
2022-08-25T07:01:19.671Z,101825.22
2022-08-25T07:03:48.068Z,101820.94
2022-08-25T07:06:18.505Z,101831.16
2022-08-25T07:08:46.573Z,101828.09
2022-08-25T07:11:16.671Z,101824.00
2022-08-25T07:13:45.327Z,101824.47
2022-08-25T07:16:12.457Z,101821.38
2022-08-25T07:18:39.078Z,101830.59
2022-08-25T07:21:05.919Z,101819.41
2022-08-25T07:23:36.915Z,101828.59
2022-08-25T07:26:33.630Z,101830.94
2022-08-25T07:28:58.817Z,101821.81
2022-08-25T07:31:29.353Z,101818.09
2022-08-25T07:34:15.132Z,101823.75
2022-08-25T07:36:43.382Z,101815.66
2022-08-25T07:39:10.229Z,101824.88
2022-08-25T07:41:39.377Z,101829.53
2022-08-25T07:44:06.473Z,101820.41
2022-08-25T07:46:34.148Z,101820.22
2022-08-25T07:49:00.797Z,101818.59
2022-08-25T07:53:58.915Z,101811.78
2022-08-25T07:56:28.226Z,101813.91
2022-08-25T07:58:54.907Z,101815.38
2022-08-25T08:01:24.423Z,101812.13
2022-08-25T08:03:52.156Z,101811.94
2022-08-25T08:06:22.508Z,101806.97
2022-08-25T08:08:50.794Z,101800.13
2022-08-25T08:11:27.218Z,101810.19
2022-08-25T08:13:55.391Z,101805.63
2022-08-25T08:16:25.008Z,101803.16
2022-08-25T08:18:52.230Z,101799.50
2022-08-25T08:21:28.498Z,101797.44
2022-08-25T08:23:59.080Z,101795.56
2022-08-25T08:26:36.281Z,101796.22
2022-08-25T08:29:08.825Z,101803.38
2022-08-25T08:31:36.754Z,101795.47
2022-08-25T08:34:03.730Z,101793.88
2022-08-25T08:36:30.379Z,101788.91
2022-08-25T08:38:56.908Z,101783.13
2022-08-25T08:42:11.225Z,101791.47
2022-08-25T08:44:44.640Z,101783.41
2022-08-25T08:47:32.888Z,101790.72
2022-08-25T08:50:23.076Z,101775.16
2022-08-25T08:53:10.856Z,101772.50
2022-08-25T08:55:42.782Z,101779.66
2022-08-25T08:58:26.134Z,101779.88
2022-08-25T09:00:56.312Z,101776.19
2022-08-25T09:03:39.756Z,101778.91
2022-08-25T09:06:20.414Z,101782.25
2022-08-25T09:08:47.421Z,101778.13
2022-08-25T09:11:27.498Z,101778.56
2022-08-25T09:14:38.492Z,101763.78
2022-08-25T09:17:22.420Z,101772.09
2022-08-25T09:20:26.143Z,101773.38
2022-08-25T09:23:21.342Z,101773.81
2022-08-25T09:26:08.049Z,101779.47
2022-08-25T09:28:41.772Z,101779.25
2022-08-25T09:31:24.279Z,101767.00
2022-08-25T09:33:59.941Z,101770.13
2022-08-25T09:36:27.036Z,101764.72
2022-08-25T09:38:53.608Z,101767.03
2022-08-25T09:41:42.318Z,101770.75
2022-08-25T09:44:26.018Z,101770.16
2022-08-25T09:47:15.249Z,101761.41
2022-08-25T09:49:47.716Z,101767.47
2022-08-25T09:52:31.803Z,101756.81
2022-08-25T09:55:25.563Z,101757.25
2022-08-25T09:57:57.450Z,101755.16
2022-08-25T10:00:34.354Z,101745.78
2022-08-25T10:03:22.501Z,101741.59
2022-08-25T10:06:03.354Z,101743.91
2022-08-25T10:08:45.118Z,101732.66
2022-08-25T10:11:15.400Z,101735.81
2022-08-25T10:13:46.713Z,101732.47
2022-08-25T10:16:32.149Z,101724.53
2022-08-25T10:19:02.876Z,101729.97
2022-08-25T10:21:29.483Z,101729.34
2022-08-25T10:23:56.374Z,101725.56
2022-08-25T10:26:51.064Z,101725.78
2022-08-25T10:29:32.718Z,101716.59
2022-08-25T10:32:13.602Z,101712.84
2022-08-25T10:34:54.706Z,101711.78
2022-08-25T10:37:46.156Z,101702.19
2022-08-25T10:40:28.762Z,101705.72
2022-08-25T10:43:23.696Z,101698.84
2022-08-25T10:46:14.926Z,101694.88
2022-08-25T10:49:19.256Z,101689.81
2022-08-25T10:51:51.910Z,101684.81
2022-08-25T10:54:31.771Z,101670.22
2022-08-25T10:57:17.768Z,101682.09
2022-08-25T10:59:59.566Z,101668.53
2022-08-25T11:02:50.919Z,101668.53
2022-08-25T11:05:28.854Z,101671.88
2022-08-25T11:08:06.749Z,101668.09
2022-08-25T11:11:02.336Z,101667.69
2022-08-25T11:13:30.960Z,101666.03
2022-08-25T11:16:17.518Z,101659.13
2022-08-25T11:19:05.398Z,101658.50
2022-08-25T11:22:00.835Z,101657.03
2022-08-25T11:24:32.959Z,101645.97
2022-08-25T11:27:06.434Z,101644.91
2022-08-25T11:29:37.129Z,101644.28
2022-08-25T11:32:06.532Z,101641.94
2022-08-25T11:34:36.696Z,101643.00
2022-08-25T11:37:27.943Z,101638.81
2022-08-25T11:40:59.489Z,101637.56
2022-08-25T11:43:46.720Z,101635.47
2022-08-25T11:47:05.684Z,101631.69
2022-08-25T11:49:56.826Z,101620.63
2022-08-25T11:52:32.603Z,101626.22
2022-08-25T11:55:10.805Z,101623.28
2022-08-25T11:57:38.557Z,101634.97
2022-08-25T12:00:09.666Z,101623.50
2022-08-25T12:02:51.655Z,101629.13
2022-08-25T12:05:24.203Z,101622.84
2022-08-25T12:08:13.758Z,101626.41
2022-08-25T12:11:11.884Z,101621.19
2022-08-25T12:13:50.836Z,101626.84
2022-08-25T12:16:35.794Z,101621.63
2022-08-25T12:19:30.258Z,101616.19
2022-08-25T12:22:19.096Z,101612.44
2022-08-25T12:25:21.068Z,101611.59
2022-08-25T12:28:09.174Z,101613.03
2022-08-25T12:30:58.900Z,101611.38
2022-08-25T12:33:40.521Z,101618.25
2022-08-25T12:36:11.339Z,101605.53
2022-08-25T12:38:52.401Z,101612.97
2022-08-25T12:41:26.245Z,101609.69
2022-08-25T12:44:09.765Z,101605.31
2022-08-25T12:46:39.383Z,101612.19
2022-08-25T12:49:15.291Z,101609.22
2022-08-25T12:51:50.971Z,101605.66
2022-08-25T12:54:25.198Z,101601.53
2022-08-25T12:56:57.526Z,101603.78
2022-08-25T12:59:43.679Z,101605.47
2022-08-25T13:02:27.312Z,101601.91
2022-08-25T13:05:26.402Z,101599.81
2022-08-25T13:08:33.709Z,101596.25
2022-08-25T13:11:11.071Z,101593.75
2022-08-25T13:13:56.123Z,101602.31
2022-08-25T13:16:29.608Z,101594.16
2022-08-25T13:19:01.567Z,101591.03
2022-08-25T13:21:30.539Z,101580.56
2022-08-25T13:24:05.348Z,101584.31
2022-08-25T13:26:37.664Z,101583.63
2022-08-25T13:29:21.427Z,101576.97
2022-08-25T13:32:00.949Z,101579.47
2022-08-25T13:34:42.576Z,101577.59
2022-08-25T13:37:31.452Z,101577.59
2022-08-25T13:40:16.431Z,101576.94
2022-08-25T13:42:54.474Z,101575.88
2022-08-25T13:45:29.050Z,101575.63
2022-08-25T13:47:59.151Z,101569.63
2022-08-25T13:50:26.539Z,101572.09
2022-08-25T13:52:57.760Z,101576.47
2022-08-25T13:55:51.266Z,101571.88
2022-08-25T13:58:24.901Z,101566.22
2022-08-25T14:01:22.665Z,101568.72
2022-08-25T14:04:21.376Z,101564.13
2022-08-25T14:06:49.095Z,101560.13
2022-08-25T14:09:26.632Z,101548.44
2022-08-25T14:11:58.527Z,101554.25
2022-08-25T14:14:24.971Z,101552.38
2022-08-25T14:16:58.818Z,101551.31
2022-08-25T14:19:26.296Z,101545.28
2022-08-25T14:21:56.649Z,101542.94
2022-08-25T14:24:23.856Z,101544.84
2022-08-25T14:26:54.527Z,101537.28
2022-08-25T14:29:22.310Z,101535.16
2022-08-25T14:31:49.535Z,101539.56
2022-08-25T14:34:26.027Z,101533.91
2022-08-25T14:36:55.670Z,101535.34
2022-08-25T14:39:22.363Z,101527.81
2022-08-25T14:41:53.165Z,101534.66
2022-08-25T14:44:21.336Z,101528.16
2022-08-25T14:46:54.337Z,101528.78
2022-08-25T14:49:25.454Z,101518.94
2022-08-25T14:51:52.321Z,101523.72
2022-08-25T14:54:21.234Z,101513.91
2022-08-25T14:56:48.478Z,101518.69
2022-08-25T14:59:15.504Z,101520.34
2022-08-25T15:01:42.732Z,101510.31
2022-08-25T15:04:17.711Z,101515.25
2022-08-25T15:06:45.854Z,101516.47
2022-08-25T15:09:16.588Z,101509.16
2022-08-25T15:11:50.764Z,101515.00
2022-08-25T15:14:28.859Z,101515.84
2022-08-25T15:17:01.628Z,101517.50
2022-08-25T15:19:29.018Z,101521.63
2022-08-25T15:21:58.158Z,101518.91
2022-08-25T15:24:27.367Z,101518.47
2022-08-25T15:27:03.845Z,101519.69
2022-08-25T15:29:34.740Z,101516.97
2022-08-25T15:32:03.472Z,101519.47
2022-08-25T15:34:30.626Z,101511.75
2022-08-25T15:36:59.040Z,101511.91
2022-08-25T15:39:25.813Z,101491.75
2022-08-25T15:41:52.848Z,101520.91
2022-08-25T15:44:20.223Z,101517.47
2022-08-25T15:46:50.294Z,101512.03
2022-08-25T15:49:20.703Z,101507.88
2022-08-25T15:51:52.440Z,101506.84
2022-08-25T15:54:20.143Z,101503.88
2022-08-25T15:56:47.294Z,101513.72
2022-08-25T15:59:14.147Z,101512.03
2022-08-25T16:01:41.524Z,101511.00
2022-08-25T16:04:08.147Z,101501.66
2022-08-25T16:06:34.698Z,101506.84
2022-08-25T16:09:02.128Z,101503.88
2022-08-25T16:11:31.318Z,101506.38
2022-08-25T16:13:57.896Z,101510.78
2022-08-25T16:16:26.935Z,101512.44
2022-08-25T16:18:54.072Z,101509.50
2022-08-25T16:21:29.045Z,101514.69
2022-08-25T16:23:59.791Z,101507.81
2022-08-25T16:26:30.172Z,101508.66
2022-08-25T16:28:56.959Z,101513.66
2022-08-25T16:31:24.200Z,101513.03
2022-08-25T16:33:54.782Z,101506.78
2022-08-25T16:36:25.168Z,101518.84
2022-08-25T16:38:54.919Z,101511.53
2022-08-25T16:41:25.437Z,101514.00
2022-08-25T16:43:52.529Z,101506.53
2022-08-25T16:46:21.426Z,101521.59
2022-08-25T16:48:50.507Z,101513.41
2022-08-25T16:51:22.705Z,101507.59
2022-08-25T16:54:17.806Z,101515.31
2022-08-25T16:56:54.849Z,101512.44
2022-08-25T16:59:22.106Z,101523.69
2022-08-25T17:01:51.171Z,101510.53
2022-08-25T17:04:17.892Z,101513.25
2022-08-25T17:06:51.531Z,101512.66
2022-08-25T17:09:24.092Z,101513.59
2022-08-25T17:11:54.153Z,101523.03
2022-08-25T17:14:21.834Z,101531.41
2022-08-25T17:16:50.669Z,101520.59
2022-08-25T17:19:18.994Z,101521.91
2022-08-25T17:21:46.688Z,101529.47
2022-08-25T17:24:14.256Z,101532.72
2022-08-25T17:26:42.464Z,101528.78
2022-08-25T17:29:09.734Z,101526.75
2022-08-25T17:31:39.762Z,101524.03
2022-08-25T17:34:09.431Z,101523.84
2022-08-25T17:36:36.544Z,101525.97
2022-08-25T17:39:04.122Z,101526.88
2022-08-25T17:41:31.932Z,101525.44
2022-08-25T17:43:58.774Z,101529.19
2022-08-25T17:46:26.018Z,101527.53
2022-08-25T17:48:53.155Z,101535.91
2022-08-25T17:51:20.412Z,101537.56
2022-08-25T17:53:49.292Z,101533.63
2022-08-25T17:56:18.508Z,101529.25
2022-08-25T17:58:47.185Z,101537.03
2022-08-25T18:01:25.912Z,101525.56
2022-08-25T18:03:54.391Z,101523.28
2022-08-25T18:06:23.616Z,101533.53
2022-08-25T18:08:51.812Z,101534.75
2022-08-25T18:11:24.429Z,101538.53
2022-08-25T18:13:53.675Z,101545.25
2022-08-25T18:16:20.841Z,101547.56
2022-08-25T18:18:48.439Z,101548.00
2022-08-25T18:21:17.562Z,101547.59
2022-08-25T18:23:44.863Z,101551.00
2022-08-25T18:26:13.184Z,101546.03
2022-08-25T18:28:40.301Z,101552.38
2022-08-25T18:31:11.973Z,101552.38
2022-08-25T18:33:42.033Z,101544.53
2022-08-25T18:36:09.638Z,101556.44
2022-08-25T18:38:58.129Z,101550.22
2022-08-25T18:41:26.411Z,101554.19
2022-08-25T18:43:53.353Z,101557.94
2022-08-25T18:46:22.781Z,101568.78
2022-08-25T18:48:52.872Z,101572.16
2022-08-25T18:51:23.153Z,101564.03
2022-08-25T18:53:51.201Z,101577.81
2022-08-25T18:56:22.439Z,101583.66
2022-08-25T18:58:49.061Z,101585.34
2022-08-25T19:01:18.161Z,101588.28
2022-08-25T19:03:45.203Z,101593.31
2022-08-25T19:06:11.807Z,101602.06
2022-08-25T19:08:41.926Z,101602.31
2022-08-25T19:11:09.963Z,101595.84
2022-08-25T19:13:38.123Z,101605.91
2022-08-25T19:16:17.849Z,101607.94
2022-08-25T19:18:48.971Z,101610.50
2022-08-25T19:21:22.801Z,101612.16
2022-08-25T19:23:50.585Z,101621.97
2022-08-25T19:26:17.987Z,101637.81
2022-08-25T19:28:49.037Z,101629.06
2022-08-25T19:31:20.666Z,101631.34
2022-08-25T19:33:49.611Z,101635.72
2022-08-25T19:36:17.851Z,101640.13
2022-08-25T19:38:48.225Z,101638.66
2022-08-25T19:41:19.883Z,101637.19
2022-08-25T19:43:55.522Z,101635.72
2022-08-25T19:46:33.093Z,101638.81
2022-08-25T19:49:23.051Z,101639.88
2022-08-25T19:51:51.954Z,101645.69
2022-08-25T19:54:24.100Z,101649.44
2022-08-25T19:56:54.430Z,101654.84
2022-08-25T19:59:40.365Z,101659.81
2022-08-25T20:02:12.615Z,101666.88
2022-08-25T20:04:42.939Z,101669.81
2022-08-25T20:07:16.581Z,101671.91
2022-08-25T20:09:43.243Z,101673.09
2022-08-25T20:12:11.963Z,101680.34
2022-08-25T20:14:39.204Z,101677.16
2022-08-25T20:17:23.868Z,101679.84
2022-08-25T20:19:57.102Z,101680.25
2022-08-25T20:22:26.971Z,101670.72
2022-08-25T20:24:57.865Z,101673.59
2022-08-25T20:27:33.521Z,101670.44
2022-08-25T20:30:02.643Z,101677.34
2022-08-25T20:32:29.561Z,101685.66
2022-08-25T20:34:56.365Z,101695.00
2022-08-25T20:37:23.146Z,101688.72
2022-08-25T20:39:51.161Z,101691.66
2022-08-25T20:42:18.475Z,101695.38
2022-08-25T20:44:46.885Z,101694.28
2022-08-25T20:47:14.897Z,101697.41
2022-08-25T20:49:43.890Z,101700.31
2022-08-25T20:52:11.922Z,101705.94
2022-08-25T20:54:38.691Z,101712.63
2022-08-25T20:57:05.406Z,101703.69
2022-08-25T20:59:34.585Z,101706.66
2022-08-25T21:02:02.199Z,101708.13
2022-08-25T21:04:30.247Z,101718.34
2022-08-25T21:07:00.326Z,101719.81
2022-08-25T21:09:28.089Z,101715.03
2022-08-25T21:11:56.879Z,101716.69
2022-08-25T21:14:24.621Z,101719.41
2022-08-25T21:16:54.179Z,101714.00
2022-08-25T21:19:26.198Z,101717.53
2022-08-25T21:21:54.175Z,101716.69
2022-08-25T21:24:26.408Z,101719.59
2022-08-25T21:26:55.876Z,101728.16
2022-08-25T21:29:24.316Z,101730.88
2022-08-25T21:31:50.966Z,101727.31
2022-08-25T21:34:18.605Z,101736.94
2022-08-25T21:36:46.094Z,101736.28
2022-08-25T21:39:14.410Z,101730.03
2022-08-25T21:41:45.451Z,101733.56
2022-08-25T21:44:13.021Z,101732.09
2022-08-25T21:46:41.312Z,101732.50
2022-08-25T21:49:08.541Z,101727.31
2022-08-25T21:51:39.314Z,101727.69
2022-08-25T21:54:10.770Z,101733.13
2022-08-25T21:56:52.104Z,101731.19
2022-08-25T21:59:26.683Z,101747.44
2022-08-25T22:01:58.404Z,101734.94
2022-08-25T22:04:26.025Z,101738.25
2022-08-25T22:06:52.666Z,101735.94
2022-08-25T22:09:19.367Z,101738.00
2022-08-25T22:11:46.167Z,101735.09
2022-08-25T22:14:13.961Z,101737.81
2022-08-25T22:16:41.088Z,101739.69
2022-08-25T22:19:09.541Z,101747.59
2022-08-25T22:21:36.345Z,101736.53
2022-08-25T22:24:03.341Z,101741.75
2022-08-25T22:26:31.475Z,101729.44
2022-08-25T22:28:59.514Z,101735.69
2022-08-25T22:31:27.497Z,101741.09
2022-08-25T22:33:55.756Z,101745.03
2022-08-25T22:36:33.419Z,101735.28
2022-08-25T22:39:00.435Z,101742.56
2022-08-25T22:41:29.493Z,101738.19
2022-08-25T22:43:56.784Z,101745.44
2022-08-25T22:46:26.043Z,101745.66
2022-08-25T22:48:55.382Z,101752.91
2022-08-25T22:51:25.534Z,101747.25
2022-08-25T22:53:52.233Z,101748.56
2022-08-25T22:56:29.639Z,101754.16
2022-08-25T22:59:02.630Z,101765.16
2022-08-25T23:01:29.997Z,101770.75
2022-08-25T23:03:56.498Z,101766.38
2022-08-25T23:06:25.108Z,101771.97
2022-08-25T23:08:54.038Z,101773.03
2022-08-25T23:11:23.671Z,101767.19
2022-08-25T23:13:50.882Z,101774.47
2022-08-25T23:16:18.002Z,101763.84
2022-08-25T23:18:46.819Z,101764.03
2022-08-25T23:21:37.987Z,101768.59
2022-08-25T23:24:10.687Z,101772.34
2022-08-25T23:26:38.148Z,101766.09
2022-08-25T23:29:18.655Z,101762.13
2022-08-25T23:31:47.170Z,101769.41
2022-08-25T23:34:15.685Z,101766.88
2022-08-25T23:36:43.192Z,101763.53
2022-08-25T23:39:11.254Z,101761.19
2022-08-25T23:41:37.996Z,101762.03
2022-08-25T23:44:11.646Z,101772.19
2022-08-25T23:46:38.552Z,101770.72
2022-08-25T23:49:08.127Z,101768.66
2022-08-25T23:51:37.180Z,101775.94
2022-08-25T23:54:09.365Z,101768.22
2022-08-25T23:56:44.492Z,101773.41
2022-08-25T23:59:13.109Z,101775.47
